Montello, WI

12:06 AM CST on December 26, 2014 (GMT -0600)
WIDOT Montello - I-39 @ STH 23 East | Change Station
CLOSE
Current Station
Personal Weather Station
Location: Packwaukee, WI
Elevation: 850 ft
Nearby Weather Stations

Elev 850 ft 43.79 °N, 89.48 °W | Updated 53 minutes ago

Partly Cloudy
Partly Cloudy
31 °F
Feels Like 31 °F
N
0
Wind Variable Wind from SSE
Gusts 1.0 mph

Today
High -- | Low -- °F
--% Chance of Precip.
Yesterday
High -- | Low -- °F
Precip. -- in
7:30 AM 4:25 PM
Waxing Crescent, 22% visible
Pressure 29.93 in
Visibility 4.0 miles
Clouds Clear
Windchill 31 °F
Dew Point 29 °F
Humidity 91%
Rainfall -999.00 in
Snow Depth Not available.
UV 0 out of 12
Pollen .10 out of 12
Air Quality Not available.
Flu Activity Not available.
METAR KY50 260556Z AUTO 00000KT 4SM BR CLR M03/M03 A2991 RMK AO2 TSNO 50003 60001 T10271027 11011 21027 400331027 SLP135

More Conditions Fewer Conditions

Pressure 29.93 in
Visibility 4.0 miles
Clouds Clear
Windchill 31 °F
Dew Point 29 °F
Humidity 91%
Rainfall -999.00 in
Snow Depth Not available.
UV 0 out of 12
Pollen .10 out of 12
Air Quality Not available.
Flu Activity Not available.
METAR KY50 260556Z AUTO 00000KT 4SM BR CLR M03/M03 A2991 RMK AO2 TSNO 50003 60001 T10271027 11011 21027 400331027 SLP135

More Conditions Fewer Conditions

10-Day Weather Forecast

Almanac

Astronomy

Dec. 26, 2014 Rise Set
Actual Time
Civil Twilight
Nautical Twilight
Astronomical Twilight
Moon
Length of Visible Light
Length of Day
Tomorrow will be .
, % of the Moon is Illuminated

Today's Extremes

State Highs State Lows

Community

WunderPhotos

Upload Photos

1,780,551 photos uploaded!

WunderBlogs® & News

Nearby

Air Quality

  Air Quality AQ Index Pollutant
Not available.

Snow Depth

Station Depth Elevation

Earthquake Activity

City Distance Mag. Time & Date
Minimum magnitude displayed is 2.5.

Coastal Water Temperatures

Place Temperature

Nearby Weather Stations